Time;durP1;ratioP1;P1;durP2;ratioP2;P2;SDS_P1;SDS_P2;PMS_P1;PMS_P2;Temp;Humidity;BMP_temperature;BMP_pressure;BME280_temperature;BME280_humidity;BME280_pressure;Samples;Min_cycle;Max_cycle;Signal;HPM_P1;HPM_P2
2021/12/03 00:01:21;;;;;;;4.65;2.15;;;;;;;2.83;61.91;100072.22;6196468;23;20015;-76
2021/12/03 00:04:12;;;;;;;1.40;1.30;;;;;;;3.02;61.74;100083.06;6217557;23;20008;-77
2021/12/03 00:07:06;;;;;;;1.58;1.45;;;;;;;3.10;62.03;100083.59;6054922;23;20142;-77
2021/12/03 00:16:42;;;;;;;2.00;1.90;;;;;;;3.19;62.13;100076.00;6101783;23;20114;-74
2021/12/03 00:19:15;;;;;;;2.05;1.63;;;;;;;3.11;61.87;100068.19;6074817;23;20061;-76
2021/12/03 00:21:41;;;;;;;2.20;1.92;;;;;;;3.24;61.91;100081.56;6074223;23;20081;-75
2021/12/03 00:24:06;;;;;;;1.50;1.40;;;;;;;3.11;61.91;100057.38;6127456;23;20320;-75
2021/12/03 00:26:32;;;;;;;5.50;2.03;;;;;;;3.26;61.63;100076.75;6222988;23;20007;-74
2021/12/03 00:28:58;;;;;;;4.72;1.63;;;;;;;3.17;61.67;100064.59;6194922;23;20032;-76
2021/12/03 00:31:23;;;;;;;6.07;2.95;;;;;;;3.34;62.13;100080.19;6171800;23;20023;-77
2021/12/03 00:34:00;;;;;;;4.85;2.50;;;;;;;3.32;62.14;100069.63;6221183;23;19997;-76
2021/12/03 00:36:29;;;;;;;1.58;1.52;;;;;;;3.33;61.94;100065.88;6194990;23;20096;-75
2021/12/03 00:39:06;;;;;;;1.80;1.70;;;;;;;3.28;62.23;100063.00;6171420;23;20096;-76
2021/12/03 00:41:44;;;;;;;3.92;1.67;;;;;;;3.31;62.54;100062.56;6171383;23;20012;-75
2021/12/03 00:44:13;;;;;;;1.83;1.73;;;;;;;3.40;62.63;100073.88;6194717;23;20008;-76
2021/12/03 00:57:03;;;;;;;2.97;1.80;;;;;;;3.25;63.56;100037.25;6101637;23;20037;-80
2021/12/03 00:59:29;;;;;;;1.75;1.65;;;;;;;3.26;63.50;100036.22;6104133;23;20014;-81
2021/12/03 01:01:55;;;;;;;3.45;1.73;;;;;;;3.21;63.43;100014.44;6189990;23;20009;-79
2021/12/03 01:04:21;;;;;;;3.55;1.58;;;;;;;3.35;63.64;100030.50;6193704;23;20005;-79
2021/12/03 01:06:51;;;;;;;1.30;1.23;;;;;;;3.38;63.91;100024.66;6194462;23;20027;-83
2021/12/03 01:09:38;;;;;;;1.80;1.13;;;;;;;3.42;63.84;100033.94;6223666;23;20004;-83
2021/12/03 01:12:14;;;;;;;1.95;1.63;;;;;;;3.38;63.66;100019.25;6195553;23;20009;-81
2021/12/03 01:14:50;;;;;;;;;;;;;;;;;;;;;
2021/12/03 01:17:16;;;;;;;3.65;1.60;;;;;;;3.43;63.75;100016.66;6217412;23;20032;-78
2021/12/03 01:19:42;;;;;;;2.42;1.63;;;;;;;3.44;64.16;100008.31;6170347;23;20012;-78
2021/12/03 01:22:25;;;;;;;1.55;1.45;;;;;;;3.29;65.18;99976.28;6217392;23;20605;-79
2021/12/03 01:24:54;;;;;;;1.30;1.20;;;;;;;3.30;65.12;99986.06;6221743;23;20012;-80
2021/12/03 01:27:19;;;;;;;1.40;1.30;;;;;;;3.49;65.27;100005.75;6194588;23;20000;-79
2021/12/03 01:29:52;;;;;;;1.67;1.38;;;;;;;3.44;65.52;99991.28;6144765;23;20115;-79
2021/12/03 01:32:21;;;;;;;9.07;1.60;;;;;;;3.58;65.48;100002.75;6170090;23;20431;-79
2021/12/03 01:34:49;;;;;;;3.28;1.30;;;;;;;3.51;65.91;99992.00;6195307;23;20058;-80
2021/12/03 01:37:22;;;;;;;2.28;1.63;;;;;;;3.36;66.28;99973.53;6193947;23;20024;-80
2021/12/03 01:39:48;;;;;;;2.15;1.42;;;;;;;3.35;66.36;99973.75;6218044;23;20134;-80
2021/12/03 01:42:13;;;;;;;1.25;1.15;;;;;;;3.27;66.81;99970.31;6194083;23;20067;-79
2021/12/03 01:44:47;;;;;;;3.33;1.50;;;;;;;3.15;68.22;99945.09;6190716;23;20012;-78
2021/12/03 01:47:15;;;;;;;2.30;0.90;;;;;;;3.31;68.74;99979.63;6169495;23;20012;-77
2021/12/03 01:49:45;;;;;;;2.45;0.95;;;;;;;3.18;68.82;99943.81;6190562;23;20004;-77
2021/12/03 01:52:16;;;;;;;3.40;1.17;;;;;;;3.02;69.56;99929.88;6192742;23;20730;-79
2021/12/03 01:54:42;;;;;;;3.85;1.35;;;;;;;3.18;70.16;99952.75;6217843;23;20001;-78
2021/12/03 01:57:16;;;;;;;1.35;1.25;;;;;;;3.09;70.94;99952.25;6193453;23;20013;-77
2021/12/03 01:59:42;;;;;;;2.63;0.93;;;;;;;3.03;71.51;99936.94;6217257;23;20005;-77
2021/12/03 02:02:08;;;;;;;1.63;0.88;;;;;;;3.04;71.60;99926.97;6167493;23;20058;-76
2021/12/03 02:04:44;;;;;;;2.60;1.48;;;;;;;2.99;72.00;99926.84;6219142;23;20036;-77
2021/12/03 02:07:10;;;;;;;0.82;0.82;;;;;;;3.07;71.64;99931.94;6216284;23;20008;-77
2021/12/03 02:09:38;;;;;;;5.70;0.95;;;;;;;3.02;72.68;99904.75;6191786;23;20015;-77
2021/12/03 02:12:06;;;;;;;0.77;0.57;;;;;;;2.95;72.63;99897.59;6169672;23;20454;-76
2021/12/03 02:14:34;;;;;;;0.93;0.82;;;;;;;3.01;72.67;99905.81;6168068;23;20043;-77
2021/12/03 02:17:18;;;;;;;1.20;0.98;;;;;;;3.13;72.77;99904.00;6226896;23;20004;-79
2021/12/03 02:23:09;;;;;;;0.80;0.55;;;;;;;3.11;72.99;99879.06;6220936;23;20102;-78
2021/12/03 02:25:46;;;;;;;0.95;0.52;;;;;;;3.01;73.71;99854.47;6191025;23;20082;-79
2021/12/03 02:28:20;;;;;;;3.95;0.75;;;;;;;3.30;73.32;99888.78;6194848;23;20005;-80
2021/12/03 02:30:46;;;;;;;0.70;0.38;;;;;;;3.27;73.47;99866.78;6217502;23;20457;-73
2021/12/03 02:33:12;;;;;;;2.53;0.60;;;;;;;3.29;73.52;99854.69;6190096;23;20008;-73
2021/12/03 02:35:44;;;;;;;0.82;0.52;;;;;;;3.45;73.58;99863.19;6185649;23;20497;-73
2021/12/03 02:38:12;;;;;;;3.92;0.45;;;;;;;3.47;73.59;99855.66;6214424;23;20008;-75
2021/12/03 02:40:38;;;;;;;0.80;0.70;;;;;;;3.50;73.82;99855.19;6224108;23;19996;-76
2021/12/03 02:43:06;;;;;;;0.55;0.55;;;;;;;3.49;73.46;99845.44;6216379;23;20518;-79
2021/12/03 02:45:32;;;;;;;0.68;0.57;;;;;;;3.47;73.44;99834.03;6219228;23;20012;-78
2021/12/03 02:48:06;;;;;;;1.60;1.02;;;;;;;3.55;73.77;99841.81;6221448;23;20101;-77
2021/12/03 02:50:32;;;;;;;0.90;0.73;;;;;;;3.61;73.72;99837.34;6217455;23;20027;-75
2021/12/03 02:52:58;;;;;;;0.80;0.65;;;;;;;3.47;73.21;99809.69;6164788;23;20005;-76
2021/12/03 02:55:27;;;;;;;2.47;0.40;;;;;;;3.65;73.68;99820.41;6193215;23;20039;-77
2021/12/03 02:57:52;;;;;;;1.17;0.60;;;;;;;3.65;73.95;99809.59;6221588;23;20019;-78
2021/12/03 03:00:21;;;;;;;0.43;0.30;;;;;;;3.63;73.57;99792.75;6191964;23;20339;-78
2021/12/03 03:02:59;;;;;;;1.35;0.52;;;;;;;3.66;73.53;99781.50;6220956;23;20415;-79
2021/12/03 03:05:30;;;;;;;1.75;0.35;;;;;;;3.71;73.90;99780.78;6193436;23;20000;-78
2021/12/03 03:07:55;;;;;;;0.28;0.28;;;;;;;3.84;73.78;99777.00;6191376;23;20009;-76
2021/12/03 03:13:47;;;;;;;1.08;0.43;;;;;;;3.81;73.60;99753.13;6217669;23;20004;-77
2021/12/03 03:19:35;;;;;;;0.55;0.32;;;;;;;3.74;74.48;99717.28;6220745;23;20015;-78
2021/12/03 03:22:15;;;;;;;;;;;;;;;;;;;;;
2021/12/03 03:24:42;;;;;;;0.57;0.30;;;;;;;4.02;74.59;99747.09;6217066;23;20025;-79
2021/12/03 03:27:08;;;;;;;1.08;0.20;;;;;;;4.02;74.68;99725.44;6193310;23;20365;-78
2021/12/03 03:29:34;;;;;;;1.88;0.50;;;;;;;4.06;74.67;99733.06;6194869;23;20032;-80
2021/12/03 03:32:00;;;;;;;1.10;0.70;;;;;;;4.04;74.86;99708.97;6193240;23;20016;-80
2021/12/03 03:34:28;;;;;;;1.02;0.68;;;;;;;4.08;75.14;99698.50;6193250;23;20001;-79
2021/12/03 03:37:01;;;;;;;0.98;0.52;;;;;;;4.12;75.01;99689.66;6167358;23;20052;-79
2021/12/03 03:39:30;;;;;;;1.50;0.45;;;;;;;4.17;74.88;99678.09;6193688;23;20335;-78
2021/12/03 03:41:55;;;;;;;0.50;0.50;;;;;;;4.23;74.43;99679.03;6191227;23;20004;-80
2021/12/03 03:44:24;;;;;;;0.38;0.38;;;;;;;4.23;74.55;99663.59;6190875;23;20016;-77
2021/12/03 03:46:52;;;;;;;0.80;0.30;;;;;;;4.27;74.80;99658.53;6193741;23;20005;-79
2021/12/03 03:49:21;;;;;;;0.60;0.60;;;;;;;4.28;75.46;99643.91;6191400;23;20012;-77
2021/12/03 03:51:48;;;;;;;3.05;0.60;;;;;;;4.45;75.14;99649.38;6192023;23;20057;-79
2021/12/03 03:54:14;;;;;;;0.40;0.40;;;;;;;4.29;75.34;99619.34;6218922;23;20358;-80
2021/12/03 03:56:43;;;;;;;0.50;0.40;;;;;;;4.43;75.09;99621.72;6192663;23;20028;-80
2021/12/03 03:59:21;;;;;;;;;;;;;;;;;;;;;
2021/12/03 04:01:51;;;;;;;0.50;0.50;;;;;;;4.34;76.00;99594.25;6215252;23;20016;-82
2021/12/03 04:04:25;;;;;;;0.85;0.50;;;;;;;4.45;76.59;99584.38;6195999;23;20000;-81
2021/12/03 04:06:59;;;;;;;1.10;0.63;;;;;;;4.27;76.94;99548.38;6194799;23;20008;-79
2021/12/03 04:09:24;;;;;;;1.05;0.30;;;;;;;4.43;75.67;99556.75;6219080;23;20067;-79
2021/12/03 04:11:50;;;;;;;0.47;0.47;;;;;;;4.44;76.54;99558.38;6219794;23;20023;-80
2021/12/03 04:14:33;;;;;;;0.30;0.30;;;;;;;4.64;76.96;99572.22;6192928;23;20414;-79
2021/12/03 04:17:08;;;;;;;0.93;0.35;;;;;;;4.57;77.22;99547.22;6218520;23;20000;-80
2021/12/03 04:19:43;;;;;;;;;;;;;;;;;;;;;
2021/12/03 04:22:14;;;;;;;0.50;0.47;;;;;;;4.64;77.32;99537.00;6220434;23;20032;-79
2021/12/03 04:24:39;;;;;;;0.50;0.50;;;;;;;4.55;78.00;99516.84;6193501;23;20055;-82
2021/12/03 04:27:12;;;;;;;0.30;0.20;;;;;;;4.71;77.94;99526.03;6194724;23;20412;-82
2021/12/03 04:29:43;;;;;;;0.60;0.22;;;;;;;4.69;78.49;99514.63;6171966;23;20009;-82
2021/12/03 04:32:09;;;;;;;0.30;0.20;;;;;;;4.94;78.23;99538.53;6196177;23;20007;-81
2021/12/03 04:34:42;;;;;;;2.97;0.40;;;;;;;4.94;79.36;99535.81;6222873;23;20079;-82
2021/12/03 04:37:07;;;;;;;1.33;0.28;;;;;;;4.78;79.51;99496.06;6196531;23;20001;-78
2021/12/03 04:39:35;;;;;;;2.85;0.40;;;;;;;4.94;79.08;99511.44;6217890;23;20011;-78
2021/12/03 04:42:01;;;;;;;1.15;0.50;;;;;;;4.97;79.50;99513.66;6187731;23;20004;-79
2021/12/03 04:44:35;;;;;;;5.32;0.45;;;;;;;4.91;79.59;99471.31;6222121;23;20062;-79
2021/12/03 04:47:08;;;;;;;4.00;1.15;;;;;;;5.11;80.05;99497.00;6195565;23;20440;-78
2021/12/03 04:49:37;;;;;;;3.47;0.98;;;;;;;5.18;79.92;99494.91;6196093;23;20035;-78
2021/12/03 04:52:03;;;;;;;2.03;0.80;;;;;;;5.34;80.76;99499.44;6202751;23;20076;-77
2021/12/03 04:54:32;;;;;;;1.33;0.40;;;;;;;5.40;80.39;99482.19;6221511;23;20001;-77
2021/12/03 04:56:58;;;;;;;0.40;0.40;;;;;;;5.38;80.07;99459.91;6193395;23;20016;-78
2021/12/03 04:59:24;;;;;;;1.13;0.13;;;;;;;5.45;80.34;99451.56;6220894;23;20016;-76
2021/12/03 05:01:58;;;;;;;0.52;0.20;;;;;;;5.62;80.87;99473.16;6191094;23;20001;-76
2021/12/03 05:04:24;;;;;;;0.00;0.00;;;;;;;5.67;81.29;99453.41;6171292;23;20063;-75
2021/12/03 05:10:06;;;;;;;0.10;0.10;;;;;;;5.81;80.97;99442.94;6204795;23;20008;-76
2021/12/03 05:12:43;;;;;;;0.00;0.00;;;;;;;5.81;80.59;99435.63;6219712;23;19999;-77
2021/12/03 05:15:09;;;;;;;0.30;0.10;;;;;;;5.89;81.64;99442.47;6193435;23;20009;-77
2021/12/03 05:17:44;;;;;;;1.15;0.20;;;;;;;5.93;82.26;99446.31;6197838;23;20012;-78
2021/12/03 05:20:12;;;;;;;0.20;0.10;;;;;;;5.85;82.40;99428.59;6222326;23;20047;-78
2021/12/03 05:22:38;;;;;;;0.32;0.20;;;;;;;5.79;82.19;99385.44;6220637;23;19996;-77
2021/12/03 05:25:07;;;;;;;0.30;0.25;;;;;;;5.93;82.43;99405.63;6190280;23;20067;-76
2021/12/03 05:27:35;;;;;;;1.02;0.10;;;;;;;6.00;82.73;99408.13;6220496;23;20372;-78
2021/12/03 05:30:10;;;;;;;0.15;0.10;;;;;;;6.00;83.82;99398.09;6193785;23;20020;-79
2021/12/03 05:32:35;;;;;;;0.17;0.10;;;;;;;6.09;83.80;99396.53;6193040;23;20588;-77
2021/12/03 05:35:08;;;;;;;3.45;0.20;;;;;;;6.21;83.60;99398.22;6193015;23;20008;-78
2021/12/03 05:37:34;;;;;;;0.85;0.20;;;;;;;6.22;83.38;99384.38;6218810;23;20008;-77
2021/12/03 05:40:00;;;;;;;0.10;0.10;;;;;;;6.33;83.56;99379.81;6220050;23;20423;-77
2021/12/03 05:42:26;;;;;;;0.05;0.05;;;;;;;6.37;83.74;99380.94;6219775;23;20004;-80
2021/12/03 05:44:53;;;;;;;0.45;0.10;;;;;;;6.35;83.72;99363.25;6167396;23;20059;-78
2021/12/03 05:47:19;;;;;;;0.25;0.10;;;;;;;6.43;83.75;99363.56;6192708;23;20015;-79
2021/12/03 05:49:49;;;;;;;0.00;0.00;;;;;;;6.50;83.86;99362.50;6193843;23;20056;-80
2021/12/03 05:52:27;;;;;;;;;;;;;;;;;;;;;
2021/12/03 05:54:55;;;;;;;0.10;0.10;;;;;;;6.69;84.14;99350.13;6218650;23;20032;-78
2021/12/03 05:57:23;;;;;;;0.60;0.10;;;;;;;6.67;84.29;99349.53;6191460;23;20025;-80
2021/12/03 05:59:51;;;;;;;0.03;0.00;;;;;;;6.69;84.53;99343.84;6193092;23;20454;-76
2021/12/03 06:02:17;;;;;;;1.45;0.10;;;;;;;6.69;84.14;99336.53;6194046;23;20015;-78
2021/12/03 06:04:42;;;;;;;0.03;0.03;;;;;;;6.80;84.00;99345.50;6192327;23;20108;-79
2021/12/03 06:07:08;;;;;;;0.20;0.10;;;;;;;6.88;84.62;99333.28;6168221;23;20005;-77
2021/12/03 06:09:33;;;;;;;0.17;0.10;;;;;;;6.95;84.04;99331.13;6217467;23;20032;-77
2021/12/03 06:12:01;;;;;;;0.10;0.10;;;;;;;6.96;84.73;99319.19;6195392;23;20404;-77
2021/12/03 06:14:29;;;;;;;0.05;0.05;;;;;;;7.01;84.22;99324.66;6218058;23;20027;-77
2021/12/03 06:16:56;;;;;;;0.00;0.00;;;;;;;7.12;84.09;99304.53;6197253;23;20028;-79
2021/12/03 06:19:22;;;;;;;0.00;0.00;;;;;;;7.32;84.61;99319.25;6196568;23;20059;-78
2021/12/03 06:21:50;;;;;;;0.43;0.20;;;;;;;7.25;84.48;99305.09;6188884;23;20932;-78
2021/12/03 06:24:16;;;;;;;0.40;0.10;;;;;;;7.22;84.44;99311.06;6219785;23;20589;-76
2021/12/03 06:26:41;;;;;;;0.10;0.10;;;;;;;7.37;83.96;99316.50;6192610;23;20008;-75
2021/12/03 06:29:07;;;;;;;0.10;0.10;;;;;;;7.38;84.20;99318.16;6168264;23;20016;-76
2021/12/03 06:31:33;;;;;;;0.05;0.03;;;;;;;7.46;83.80;99309.44;6189544;23;20004;-75
2021/12/03 06:34:02;;;;;;;0.10;0.10;;;;;;;7.39;84.53;99292.59;6192757;23;19996;-76
2021/12/03 06:36:27;;;;;;;0.10;0.10;;;;;;;7.47;85.07;99294.75;6217127;23;20282;-76
2021/12/03 06:39:01;;;;;;;0.17;0.10;;;;;;;7.53;84.77;99290.13;6164430;23;20015;-77
2021/12/03 06:41:26;;;;;;;0.00;0.00;;;;;;;7.48;84.71;99274.63;6193781;23;20009;-77
2021/12/03 06:43:52;;;;;;;0.50;0.20;;;;;;;7.51;85.11;99295.03;6191148;23;20015;-76
2021/12/03 06:46:18;;;;;;;0.20;0.10;;;;;;;7.50;84.68;99286.06;6168079;23;20023;-76
2021/12/03 06:48:44;;;;;;;0.65;0.20;;;;;;;7.63;84.43;99286.56;6167266;23;20020;-76
2021/12/03 06:51:12;;;;;;;0.20;0.20;;;;;;;7.75;84.61;99300.69;6193870;23;20008;-76
2021/12/03 06:53:43;;;;;;;0.32;0.20;;;;;;;7.73;84.58;99270.22;6222080;23;19999;-79
2021/12/03 06:56:33;;;;;;;0.20;0.10;;;;;;;7.93;84.25;99293.03;6193193;23;20017;-79
2021/12/03 06:59:02;;;;;;;0.32;0.30;;;;;;;7.85;84.22;99284.34;6208536;23;20012;-78
2021/12/03 07:01:27;;;;;;;0.40;0.30;;;;;;;7.89;84.65;99283.81;6217439;23;20024;-78
2021/12/03 07:03:53;;;;;;;1.10;0.30;;;;;;;7.93;84.53;99273.97;6193496;23;20015;-78
2021/12/03 07:06:18;;;;;;;0.30;0.30;;;;;;;8.06;84.73;99287.03;6190338;23;20059;-80
2021/12/03 07:08:44;;;;;;;0.35;0.35;;;;;;;8.05;84.16;99282.69;6168041;23;20012;-79
2021/12/03 07:11:09;;;;;;;0.30;0.30;;;;;;;8.13;83.76;99284.84;6169053;23;20008;-76
2021/12/03 07:13:37;;;;;;;0.32;0.32;;;;;;;8.04;84.52;99264.69;6219877;23;20311;-81
2021/12/03 07:16:05;;;;;;;0.20;0.20;;;;;;;8.24;84.27;99284.81;6190550;23;20004;-79
2021/12/03 07:18:31;;;;;;;1.23;0.20;;;;;;;8.16;84.18;99284.28;6193022;23;20004;-79
2021/12/03 07:20:56;;;;;;;0.30;0.30;;;;;;;8.23;83.84;99283.97;6221230;23;20005;-78
2021/12/03 07:23:22;;;;;;;0.50;0.50;;;;;;;8.29;83.72;99290.22;6166224;23;20096;-79
2021/12/03 07:25:47;;;;;;;0.38;0.38;;;;;;;8.29;83.68;99287.50;6193413;23;20009;-77
2021/12/03 07:28:16;;;;;;;0.35;0.35;;;;;;;8.33;83.66;99283.13;6192931;23;20043;-80
2021/12/03 07:30:41;;;;;;;1.63;0.52;;;;;;;8.42;83.68;99286.88;6220985;23;20004;-80
2021/12/03 07:33:11;;;;;;;2.75;2.65;;;;;;;8.50;83.57;99294.50;6194576;23;20004;-78
2021/12/03 07:35:46;;;;;;;6.82;5.60;;;;;;;8.62;83.75;99298.81;6170418;23;20437;-78
2021/12/03 07:38:17;;;;;;;4.43;4.13;;;;;;;8.55;83.47;99286.28;6193317;23;20692;-78
2021/12/03 07:40:48;;;;;;;3.03;2.92;;;;;;;8.73;83.28;99303.09;6192777;23;20074;-79
2021/12/03 07:43:16;;;;;;;1.95;1.85;;;;;;;8.79;83.11;99296.53;6193335;23;20001;-78
2021/12/03 07:45:42;;;;;;;0.98;0.98;;;;;;;8.85;83.18;99297.34;6218555;23;20047;-77
2021/12/03 07:48:07;;;;;;;0.75;0.75;;;;;;;8.87;82.67;99290.47;6193755;23;20020;-78
2021/12/03 07:50:34;;;;;;;2.10;2.00;;;;;;;8.86;83.02;99282.59;6193172;23;20020;-78
2021/12/03 07:53:00;;;;;;;2.13;2.03;;;;;;;8.93;83.18;99283.09;6217122;23;20020;-79
2021/12/03 07:55:26;;;;;;;1.83;1.73;;;;;;;8.99;82.63;99286.59;6193351;23;20442;-79
2021/12/03 07:57:55;;;;;;;1.27;1.27;;;;;;;9.01;82.77;99265.31;6205996;23;20008;-79
2021/12/03 08:00:21;;;;;;;0.65;0.65;;;;;;;9.01;82.46;99251.66;6208746;23;20305;-81
2021/12/03 08:02:50;;;;;;;0.50;0.50;;;;;;;9.16;82.69;99259.75;6184208;23;20742;-80
2021/12/03 08:05:18;;;;;;;0.20;0.20;;;;;;;9.20;82.31;99258.06;6185580;23;20017;-77
2021/12/03 08:07:47;;;;;;;0.63;0.35;;;;;;;9.25;82.37;99249.84;6204521;23;20005;-78
2021/12/03 08:10:22;;;;;;;0.25;0.25;;;;;;;9.32;82.04;99256.91;6175097;23;20019;-77
2021/12/03 08:12:57;;;;;;;0.10;0.10;;;;;;;9.26;81.92;99235.09;6218902;23;20001;-80
2021/12/03 08:15:22;;;;;;;0.30;0.30;;;;;;;9.38;81.85;99253.81;6193903;23;20035;-80
2021/12/03 08:18:05;;;;;;;0.20;0.20;;;;;;;9.34;81.95;99247.31;6192832;23;20004;-79
2021/12/03 08:20:32;;;;;;;0.15;0.15;;;;;;;9.28;81.90;99245.72;6199356;23;20063;-79
2021/12/03 08:23:00;;;;;;;0.20;0.10;;;;;;;9.31;81.69;99247.09;6196842;23;20419;-81
2021/12/03 08:25:26;;;;;;;0.35;0.35;;;;;;;9.44;82.11;99258.13;6195758;23;20007;-82
2021/12/03 08:27:54;;;;;;;0.10;0.10;;;;;;;9.38;81.77;99251.09;6173221;23;20013;-83
2021/12/03 08:30:20;;;;;;;0.10;0.10;;;;;;;9.43;82.00;99261.16;6198047;23;20004;-82
2021/12/03 08:32:48;;;;;;;0.40;0.20;;;;;;;9.53;81.70;99271.97;6173214;23;20364;-79
2021/12/03 08:35:14;;;;;;;0.82;0.35;;;;;;;9.55;81.79;99269.78;6198008;23;20008;-80
2021/12/03 08:37:45;;;;;;;0.20;0.20;;;;;;;9.55;81.82;99275.25;6198269;23;20004;-81
2021/12/03 08:40:11;;;;;;;0.40;0.40;;;;;;;9.46;81.25;99268.75;6221485;23;20084;-80
2021/12/03 08:42:37;;;;;;;0.47;0.47;;;;;;;9.43;82.20;99269.34;6170918;23;20009;-77
2021/12/03 08:45:04;;;;;;;1.85;0.40;;;;;;;9.39;82.02;99276.50;6195654;23;20073;-80
2021/12/03 08:47:30;;;;;;;1.90;1.80;;;;;;;9.42;82.64;99284.09;6221305;23;20004;-78
2021/12/03 08:49:57;;;;;;;0.68;0.68;;;;;;;9.40;82.63;99283.56;6171359;23;20015;-77
2021/12/03 08:54:54;;;;;;;1.42;0.70;;;;;;;9.37;83.35;99268.56;6196248;23;20008;-80
2021/12/03 08:57:31;;;;;;;1.23;1.20;;;;;;;9.45;83.14;99264.41;6172269;23;20029;-81
2021/12/03 09:00:05;;;;;;;0.90;0.90;;;;;;;9.44;83.28;99254.59;6224007;23;20030;-81
2021/12/03 09:02:38;;;;;;;0.80;0.80;;;;;;;9.61;83.50;99246.78;6224900;23;20082;-80
2021/12/03 09:05:17;;;;;;;0.90;0.82;;;;;;;9.81;82.97;99268.72;6199478;23;20011;-78
2021/12/03 09:07:45;;;;;;;0.80;0.80;;;;;;;9.95;83.05;99265.00;6173076;23;20016;-79
2021/12/03 09:10:13;;;;;;;1.10;1.00;;;;;;;10.14;83.13;99259.56;6222009;23;20008;-76
2021/12/03 09:12:40;;;;;;;0.70;0.70;;;;;;;10.23;82.60;99239.81;6194333;23;20059;-74
2021/12/03 09:15:38;;;;;;;;;;;;;;;;;;;;;
2021/12/03 09:23:02;;;;;;;0.98;0.98;;;;;;;10.41;81.66;99246.44;6229590;23;20015;-77
2021/12/03 09:25:36;;;;;;;2.85;1.02;;;;;;;10.56;82.01;99243.50;6171754;23;20008;-77
2021/12/03 09:28:05;;;;;;;0.55;0.55;;;;;;;10.87;80.97;99270.41;6173131;23;20004;-78
2021/12/03 09:30:37;;;;;;;1.75;0.88;;;;;;;10.89;80.85;99264.63;6221478;23;20028;-80
2021/12/03 09:33:28;;;;;;;;;;;;;;;;;;;;;
2021/12/03 09:36:08;;;;;;;;;;;;;;;;;;;;;
2021/12/03 09:38:44;;;;;;;1.02;0.90;;;;;;;11.15;79.61;99254.13;6219026;23;20036;-76
2021/12/03 09:41:18;;;;;;;0.73;0.73;;;;;;;11.17;79.77;99249.19;6192884;23;20009;-75
2021/12/03 09:43:48;;;;;;;7.28;1.05;;;;;;;11.28;79.46;99269.78;6167890;23;20507;-76
2021/12/03 09:46:20;;;;;;;0.75;0.75;;;;;;;11.30;78.60;99272.22;6219310;23;20004;-77
2021/12/03 09:49:11;;;;;;;0.98;0.98;;;;;;;11.32;79.00;99254.38;6193903;23;20000;-78
2021/12/03 09:54:30;;;;;;;1.42;1.33;;;;;;;11.33;78.57;99263.38;6140696;23;20002;-78
2021/12/03 09:57:05;;;;;;;1.30;1.30;;;;;;;11.30;78.49;99262.09;6216513;23;20036;-77
2021/12/03 10:11:15;;;;;;;1.65;1.55;;;;;;;11.62;77.72;99257.72;6228713;23;20062;-76
2021/12/03 10:13:13;;;;;;;0.90;0.90;;;;;;;11.81;78.00;99254.06;6197326;23;20020;-75
2021/12/03 10:18:41;;;;;;;1.05;1.05;;;;;;;12.64;76.66;99277.94;6228258;23;20004;-77
2021/12/03 10:21:38;;;;;;;1.10;1.10;;;;;;;12.97;75.85;99288.72;6220083;23;20004;-76
2021/12/03 10:54:44;;;;;;;1.42;1.23;;;;;;;13.61;71.03;99261.09;5989388;23;20481;-78
2021/12/03 11:17:16;;;;;;;3.83;3.13;;;;;;;13.37;69.72;99259.50;6228526;23;20428;-75
2021/12/03 12:48:02;;;;;;;3.38;3.17;;;;;;;13.56;68.46;99167.84;6224272;23;20394;-78
2021/12/03 13:29:41;;;;;;;1.30;1.27;;;;;;;13.47;67.79;99114.84;6215691;23;19904;-80
2021/12/03 13:58:11;;;;;;;1.55;1.08;;;;;;;12.61;69.75;99092.88;6220946;23;20344;-79
2021/12/03 14:06:30;;;;;;;0.95;0.95;;;;;;;12.66;69.84;99086.44;6205288;23;20014;-83
2021/12/03 14:39:56;;;;;;;1.65;0.70;;;;;;;12.53;69.39;99071.69;6234941;23;20012;-75
2021/12/03 14:45:23;;;;;;;0.63;0.63;;;;;;;12.49;69.49;99067.94;6232766;23;20019;-76
2021/12/03 14:56:35;;;;;;;1.17;1.13;;;;;;;12.26;69.61;99070.66;6163240;23;20006;-76
2021/12/03 14:59:24;;;;;;;0.90;0.80;;;;;;;12.18;69.92;99066.75;6136268;23;20041;-77
2021/12/03 15:02:16;;;;;;;;;;;;;;;;;;;;;
2021/12/03 15:08:10;;;;;;;0.95;0.80;;;;;;;11.84;70.88;99061.72;5990325;23;20016;-76
2021/12/03 15:10:57;;;;;;;2.90;0.63;;;;;;;11.76;71.57;99065.22;6069902;23;20033;-75
2021/12/03 15:21:30;;;;;;;1.45;0.70;;;;;;;11.51;72.43;99050.94;6197509;23;20067;-75
2021/12/03 15:32:41;;;;;;;0.75;0.75;;;;;;;11.25;73.22;99045.97;6230595;23;20092;-76
2021/12/03 16:05:03;;;;;;;0.77;0.77;;;;;;;10.68;73.68;98998.94;6170248;23;20104;-74
2021/12/03 16:10:11;;;;;;;1.67;0.82;;;;;;;10.62;73.92;98990.03;6167794;23;20028;-76
2021/12/03 16:12:52;;;;;;;1.20;1.10;;;;;;;10.58;73.98;98986.25;6168807;23;20518;-76
2021/12/03 16:15:40;;;;;;;2.47;0.90;;;;;;;10.52;74.11;98979.28;6194826;23;20020;-75
2021/12/03 16:21:14;;;;;;;1.20;1.17;;;;;;;10.49;74.22;98980.69;6148089;23;20020;-77
2021/12/03 16:46:13;;;;;;;0.70;0.68;;;;;;;10.21;75.14;98947.78;6168991;23;20498;-80
2021/12/03 16:51:52;;;;;;;0.98;0.93;;;;;;;10.31;74.72;98963.22;6170624;23;20009;-77
2021/12/03 16:54:28;;;;;;;1.73;1.50;;;;;;;10.29;74.57;98966.25;6166856;23;20001;-81
2021/12/03 16:56:56;;;;;;;1.30;1.20;;;;;;;10.34;74.85;98950.88;6165562;23;20104;-78
2021/12/03 16:59:24;;;;;;;1.65;1.55;;;;;;;10.33;74.67;98952.78;6163073;23;20080;-78
2021/12/03 17:02:01;;;;;;;1.40;1.30;;;;;;;10.30;74.91;98940.53;6160853;23;20391;-74
2021/12/03 17:04:46;;;;;;;1.10;1.00;;;;;;;10.36;74.61;98938.53;6188345;23;20017;-75
2021/12/03 17:57:59;;;;;;;0.70;0.63;;;;;;;10.14;75.24;98887.28;6184460;23;20047;-79
2021/12/03 18:00:42;;;;;;;0.70;0.70;;;;;;;10.05;74.97;98867.25;6221425;23;20027;-74
2021/12/03 18:03:25;;;;;;;0.85;0.85;;;;;;;10.08;75.27;98866.63;6192905;23;20004;-78
2021/12/03 18:06:12;;;;;;;0.70;0.70;;;;;;;10.06;75.58;98857.91;6196810;23;20064;-78
2021/12/03 18:11:50;;;;;;;0.50;0.50;;;;;;;10.12;75.23;98862.19;6207562;23;20324;-76
2021/12/03 18:44:38;;;;;;;1.05;1.05;;;;;;;10.10;76.13;98840.66;6219099;23;20558;-76
2021/12/03 18:55:44;;;;;;;0.52;0.52;;;;;;;10.04;76.08;98843.75;6184971;23;20057;-73
2021/12/03 18:58:09;;;;;;;0.60;0.60;;;;;;;10.13;75.80;98847.41;6217526;23;20017;-74
2021/12/03 19:00:56;;;;;;;0.60;0.60;;;;;;;10.09;76.05;98835.47;6216473;23;20507;-74
2021/12/03 19:03:52;;;;;;;0.98;0.98;;;;;;;10.05;75.88;98829.00;6219473;23;20019;-74
2021/12/03 19:09:32;;;;;;;1.25;1.15;;;;;;;10.13;75.69;98826.38;6228942;23;20023;-75
2021/12/03 19:14:53;;;;;;;0.80;0.80;;;;;;;10.14;76.13;98821.72;6223558;23;20036;-74
2021/12/03 19:17:30;;;;;;;1.60;1.50;;;;;;;10.17;75.68;98815.66;6186208;23;20051;-73
2021/12/03 19:20:16;;;;;;;0.77;0.77;;;;;;;10.19;75.87;98812.63;6206034;23;20008;-72
2021/12/03 19:22:44;;;;;;;1.45;1.35;;;;;;;10.27;75.97;98834.56;6211732;23;20004;-73
2021/12/03 19:25:10;;;;;;;0.88;0.88;;;;;;;10.17;75.65;98810.19;6215312;23;20012;-74
2021/12/03 19:27:37;;;;;;;0.60;0.60;;;;;;;10.28;76.01;98822.53;6166942;23;20008;-74
2021/12/03 19:30:04;;;;;;;0.47;0.47;;;;;;;10.26;75.47;98816.56;6216089;23;20005;-75
2021/12/03 19:32:31;;;;;;;0.55;0.55;;;;;;;10.26;75.42;98802.91;6217483;23;20005;-73
2021/12/03 19:35:00;;;;;;;0.55;0.55;;;;;;;10.36;75.82;98823.78;6190758;23;20008;-74
2021/12/03 19:37:28;;;;;;;1.08;1.08;;;;;;;10.25;75.62;98795.84;6189459;23;20491;-73
2021/12/03 19:40:12;;;;;;;2.20;2.08;;;;;;;10.33;75.67;98812.63;6190253;23;20008;-72
2021/12/03 19:42:54;;;;;;;4.38;3.97;;;;;;;10.16;75.98;98800.38;6195092;23;20016;-75
2021/12/03 19:45:22;;;;;;;2.15;2.05;;;;;;;10.24;75.46;98816.06;6222816;23;20023;-75
2021/12/03 19:50:22;;;;;;;9.15;6.70;;;;;;;10.14;75.58;98775.28;6227170;23;20012;-75
2021/12/03 19:52:58;;;;;;;12.18;7.60;;;;;;;10.16;75.90;98780.44;6189869;23;20076;-77
2021/12/03 19:55:26;;;;;;;6.53;5.25;;;;;;;10.12;75.61;98775.59;6218892;23;20391;-77
2021/12/03 19:57:53;;;;;;;4.15;3.85;;;;;;;10.13;75.94;98762.75;6215458;23;20851;-75
2021/12/03 20:00:28;;;;;;;2.45;2.35;;;;;;;10.28;76.01;98783.50;6217180;23;20040;-75
2021/12/03 20:02:56;;;;;;;2.10;2.00;;;;;;;10.30;75.51;98764.88;6163875;23;20013;-75
2021/12/03 20:05:27;;;;;;;1.88;1.77;;;;;;;10.14;75.53;98732.38;6217118;23;20015;-76
2021/12/03 20:07:57;;;;;;;1.20;1.20;;;;;;;10.26;75.79;98736.53;6165305;23;20008;-75
2021/12/03 20:10:27;;;;;;;1.15;1.10;;;;;;;10.29;75.39;98736.75;6219226;23;20009;-78
2021/12/03 20:12:53;;;;;;;2.20;2.00;;;;;;;10.19;75.22;98717.00;6190345;23;20416;-75
2021/12/03 20:15:29;;;;;;;2.97;2.78;;;;;;;10.14;75.48;98720.66;6189531;23;20009;-74